createdAt,value
2023-04-05T00:00:57.985Z,1.50
2023-04-05T00:07:02.537Z,1.40
2023-04-05T00:13:04.879Z,1.30
2023-04-05T00:19:06.920Z,1.10
2023-04-05T00:25:09.416Z,1.20
2023-04-05T00:31:12.258Z,1.20
2023-04-05T00:37:14.349Z,1.10
2023-04-05T00:43:16.577Z,1.00
2023-04-05T00:49:18.616Z,0.90
2023-04-05T00:55:21.328Z,1.00
2023-04-05T01:01:26.516Z,0.90
2023-04-05T01:07:58.857Z,1.00
2023-04-05T01:14:02.045Z,1.00
2023-04-05T01:20:13.318Z,0.90
2023-04-05T01:26:27.413Z,0.80
2023-04-05T01:32:29.503Z,0.70
2023-04-05T01:38:33.620Z,0.80
2023-04-05T01:44:35.677Z,0.80
2023-04-05T01:50:37.923Z,0.70
2023-04-05T01:56:39.774Z,0.70
2023-04-05T02:02:41.768Z,0.70
2023-04-05T02:08:43.642Z,0.70
2023-04-05T02:14:45.559Z,0.60
2023-04-05T02:20:49.440Z,0.60
2023-04-05T02:26:51.545Z,0.70
2023-04-05T02:32:53.568Z,0.60
2023-04-05T02:38:55.911Z,0.70
2023-04-05T02:44:57.717Z,0.50
2023-04-05T02:50:59.556Z,0.40
2023-04-05T02:57:02.475Z,0.30
2023-04-05T03:03:04.364Z,0.20
2023-04-05T03:09:07.342Z,0.20
2023-04-05T03:15:09.924Z,0.10
2023-04-05T03:21:12.145Z,0.10
2023-04-05T03:27:15.124Z,0.20
2023-04-05T03:33:17.715Z,0.20
2023-04-05T03:39:19.838Z,0.20
2023-04-05T03:45:24.331Z,0.20
2023-04-05T03:51:27.350Z,0.00
2023-04-05T03:57:29.866Z,0.10
2023-04-05T04:03:31.728Z,-0.10
2023-04-05T04:09:33.544Z,-0.20
2023-04-05T04:15:35.511Z,-0.20
2023-04-05T04:21:39.928Z,-0.30
2023-04-05T04:27:43.760Z,-0.30
2023-04-05T04:33:46.743Z,-0.30
2023-04-05T04:39:49.402Z,-0.30
2023-04-05T04:45:54.752Z,-0.50
2023-04-05T04:51:59.717Z,-0.50
2023-04-05T04:58:01.818Z,-0.50
2023-04-05T05:04:04.538Z,-0.50
2023-04-05T05:10:07.834Z,-0.50
2023-04-05T05:16:09.707Z,-0.50
2023-04-05T05:22:11.556Z,-0.10
2023-04-05T05:28:13.413Z,1.90
2023-04-05T05:34:15.912Z,3.10
2023-04-05T05:40:19.622Z,3.40
2023-04-05T05:46:21.789Z,3.00
2023-04-05T05:52:24.176Z,2.70
2023-04-05T05:58:26.245Z,2.30
2023-04-05T06:04:29.520Z,3.90
2023-04-05T06:10:32.833Z,4.40
2023-04-05T06:16:35.633Z,4.00
2023-04-05T06:22:40.383Z,3.50
2023-04-05T06:28:42.064Z,2.90
2023-04-05T06:34:46.623Z,3.10
2023-04-05T06:40:48.383Z,3.10
2023-04-05T06:46:50.276Z,3.30
2023-04-05T06:52:52.053Z,3.50
2023-04-05T06:58:54.146Z,3.60
2023-04-05T07:05:00.757Z,3.50
2023-04-05T07:11:02.709Z,3.50
2023-04-05T07:17:08.759Z,3.80
2023-04-05T07:23:10.705Z,4.00
2023-04-05T07:29:13.115Z,4.30
2023-04-05T07:35:15.388Z,4.70
2023-04-05T07:41:18.825Z,5.00
2023-04-05T07:47:20.704Z,5.30
2023-04-05T07:53:22.574Z,5.60
2023-04-05T07:59:25.053Z,5.70
2023-04-05T08:05:28.599Z,5.90
2023-04-05T08:11:30.787Z,5.90
2023-04-05T08:17:32.750Z,6.00
2023-04-05T08:23:34.641Z,6.40
2023-04-05T08:29:36.981Z,6.40
2023-04-05T08:35:39.357Z,6.50
2023-04-05T08:41:46.713Z,6.70
2023-04-05T08:47:52.294Z,6.70
2023-04-05T08:53:54.721Z,7.00
2023-04-05T08:59:57.700Z,7.30
2023-04-05T09:06:00.507Z,7.50
2023-04-05T09:12:04.642Z,7.00
2023-04-05T09:18:15.571Z,7.10
2023-04-05T09:24:35.586Z,7.40
2023-04-05T09:30:38.193Z,7.70
2023-04-05T09:36:45.773Z,7.90
2023-04-05T09:42:47.823Z,7.60
2023-04-05T09:48:51.383Z,7.90
2023-04-05T09:54:58.557Z,8.40
2023-04-05T10:01:13.827Z,8.80
2023-04-05T10:07:20.010Z,8.50
2023-04-05T10:13:23.620Z,9.30
2023-04-05T10:19:48.235Z,8.70
2023-04-05T10:25:57.583Z,8.60
2023-04-05T10:32:06.514Z,8.20
2023-04-05T10:38:28.049Z,7.80
2023-04-05T10:44:36.092Z,8.20
2023-04-05T10:50:39.240Z,7.80
2023-04-05T10:56:41.308Z,7.80
2023-04-05T11:02:43.819Z,8.00
2023-04-05T11:08:47.549Z,8.80
2023-04-05T11:14:49.542Z,8.70
2023-04-05T11:21:06.539Z,9.20
2023-04-05T11:27:10.079Z,10.10
2023-04-05T11:33:11.935Z,10.00
2023-04-05T11:39:21.069Z,8.90
2023-04-05T11:45:24.141Z,9.90
2023-04-05T11:51:29.956Z,9.60
2023-04-05T11:57:32.438Z,9.80
2023-04-05T12:03:35.842Z,9.30
2023-04-05T12:09:56.704Z,10.10
2023-04-05T12:16:03.825Z,10.40
2023-04-05T12:22:06.408Z,9.30
2023-04-05T12:28:09.104Z,9.50
2023-04-05T12:34:12.608Z,8.40
2023-04-05T12:40:19.612Z,8.60
2023-04-05T12:46:21.532Z,9.10
2023-04-05T12:52:26.906Z,9.30
2023-04-05T12:58:38.944Z,9.90
2023-04-05T13:04:41.224Z,10.40
2023-04-05T13:10:43.008Z,10.40
2023-04-05T13:16:44.769Z,10.70
2023-04-05T13:22:48.438Z,11.10
2023-04-05T13:28:50.355Z,10.70
2023-04-05T13:34:52.204Z,11.10
2023-04-05T13:40:54.042Z,10.00
2023-04-05T13:46:56.069Z,10.70
2023-04-05T13:52:57.963Z,11.20
2023-04-05T13:59:00.404Z,10.40
2023-04-05T14:05:02.343Z,10.00
2023-04-05T14:11:04.308Z,9.80
2023-04-05T14:17:07.348Z,9.20
2023-04-05T14:23:09.227Z,8.70
2023-04-05T14:29:11.816Z,9.30
2023-04-05T14:35:13.799Z,9.30
2023-04-05T14:41:15.769Z,9.50
2023-04-05T14:47:17.627Z,9.80
2023-04-05T14:53:19.645Z,10.10
2023-04-05T14:59:21.639Z,10.80
2023-04-05T15:05:23.734Z,11.00
2023-04-05T15:11:25.674Z,11.60
2023-04-05T15:17:27.747Z,11.50
2023-04-05T15:23:31.220Z,11.30
2023-04-05T15:29:33.287Z,11.80
2023-04-05T15:35:36.816Z,12.10
2023-04-05T15:41:38.717Z,11.80
2023-04-05T15:47:40.932Z,11.00
2023-04-05T15:53:42.795Z,10.10
2023-04-05T15:59:44.617Z,10.10
2023-04-05T16:05:46.454Z,10.20
2023-04-05T16:11:48.957Z,11.10
2023-04-05T16:17:50.820Z,10.10
2023-04-05T16:23:52.836Z,10.00
2023-04-05T16:29:54.823Z,10.00
2023-04-05T16:35:57.368Z,10.20
2023-04-05T16:42:00.232Z,10.00
2023-04-05T16:48:02.857Z,10.80
2023-04-05T16:54:04.831Z,10.00
2023-04-05T17:00:07.260Z,9.70
2023-04-05T17:06:11.181Z,9.70
2023-04-05T17:12:13.243Z,10.30
2023-04-05T17:18:15.218Z,9.60
2023-04-05T17:24:19.908Z,9.20
2023-04-05T17:30:22.066Z,8.70
2023-04-05T17:36:24.080Z,8.30
2023-04-05T17:42:25.907Z,8.00
2023-04-05T17:48:29.490Z,7.90
2023-04-05T17:54:33.935Z,7.70
2023-04-05T18:00:36.031Z,7.50
2023-04-05T18:06:38.157Z,7.30
2023-04-05T18:12:40.722Z,7.10
2023-04-05T18:18:43.234Z,7.00
2023-04-05T18:24:45.323Z,6.80
2023-04-05T18:30:50.543Z,6.60
2023-04-05T18:36:52.517Z,6.50
2023-04-05T18:42:54.309Z,6.30
2023-04-05T18:48:56.400Z,6.20
2023-04-05T18:54:58.694Z,6.20
2023-04-05T19:01:05.273Z,6.10
2023-04-05T19:07:07.267Z,5.90
2023-04-05T19:13:09.109Z,5.80
2023-04-05T19:19:11.091Z,5.70
2023-04-05T19:25:12.924Z,5.50
2023-04-05T19:31:14.917Z,5.50
2023-04-05T19:37:17.536Z,5.40
2023-04-05T19:43:19.349Z,5.30
2023-04-05T19:49:32.308Z,5.10
2023-04-05T19:55:38.764Z,5.10
2023-04-05T20:01:41.698Z,5.00
2023-04-05T20:07:43.614Z,4.80
2023-04-05T20:13:49.255Z,4.80
2023-04-05T20:19:57.218Z,4.70
2023-04-05T20:25:59.646Z,4.70
2023-04-05T20:32:01.833Z,4.60
2023-04-05T20:38:03.828Z,4.40
2023-04-05T20:44:05.635Z,4.40
2023-04-05T20:50:07.698Z,4.40
2023-04-05T20:56:11.066Z,4.40
2023-04-05T21:02:13.131Z,4.30
2023-04-05T21:08:16.535Z,4.30
2023-04-05T21:14:18.338Z,4.10
2023-04-05T21:20:20.288Z,3.90
2023-04-05T21:26:22.096Z,3.70
2023-04-05T21:32:24.192Z,3.60
2023-04-05T21:38:26.271Z,3.70
2023-04-05T21:44:28.093Z,3.70
2023-04-05T21:50:29.962Z,3.30
2023-04-05T21:56:31.861Z,3.30
2023-04-05T22:02:33.894Z,3.40
2023-04-05T22:08:35.950Z,3.50
2023-04-05T22:14:37.781Z,3.60
2023-04-05T22:20:39.609Z,3.40
2023-04-05T22:26:42.058Z,3.30
2023-04-05T22:32:44.066Z,3.10
2023-04-05T22:38:46.088Z,3.00
2023-04-05T22:44:47.970Z,2.90
2023-04-05T22:50:49.907Z,2.90
2023-04-05T22:56:51.865Z,2.90
2023-04-05T23:02:53.915Z,2.90
2023-04-05T23:08:55.877Z,2.80
2023-04-05T23:14:58.384Z,2.60
2023-04-05T23:21:00.143Z,2.30
2023-04-05T23:27:01.950Z,2.30
2023-04-05T23:33:03.797Z,2.40
2023-04-05T23:39:06.244Z,2.30
2023-04-05T23:45:10.598Z,2.40
2023-04-05T23:51:12.631Z,2.60
2023-04-05T23:57:14.552Z,2.60
